»·PEaware :: N1422E ksna-kpsp

N1422E :: ksna-kpsp

FLIGHT INFORMATION

Flight Status: Arrived
Operator: Privately registered:
United States
More flights under this callsign
Pilot: Jonathan B. (787)
Aircraft: Unknown
(EA55)
More flights by this aircraft type
Origin: ksna John Wayne-Orange Co
United States
Destination: kpsp Palm Springs Intl
United States
More flights between these airports :: More routes between these airports
Route: +
File this flight plan on PilotEdge
Remarks:
Altitude:
(Current/Filed)
7,500ft
Speed:
(Current/Filed)
300kts
Departed: 28-May-17 12:27 PM
Arrived: 28-May-17 12:57 PM
Distance/Time
Traveled:
68nm/0:30
Distance/Time
To Go:
Arrived

Flight Plot

Page will automatically refresh every two minutes.


Map Options




Map Legend


Flown Route
Filed Route
Departure Airport
Arrival Airport
Navaid (VOR, NDB)
Fix

Horizontal Profiles

Position Reports

Time Latitude Longitude Heading Altitude Ground
Speed
28-May-17 12:10 33.675103 -117.871440 39 59ft 0kts
28-May-17 12:11 33.675103 -117.871440 39 59ft 0kts
28-May-17 12:12 33.675103 -117.871440 39 59ft 0kts
28-May-17 12:13 33.675103 -117.871440 39 59ft 0kts
28-May-17 12:14 33.675103 -117.871440 39 59ft 0kts
28-May-17 12:15 33.675103 -117.871440 39 59ft 0kts
28-May-17 12:16 33.675103 -117.871440 39 59ft 0kts
28-May-17 12:17 33.675103 -117.871440 39 59ft 0kts
28-May-17 12:18 33.675103 -117.871440 39 59ft 0kts
28-May-17 12:19 33.675103 -117.871440 39 59ft 0kts
28-May-17 12:20 33.675103 -117.871440 39 59ft 0kts
28-May-17 12:21 33.675103 -117.871440 39 59ft 0kts
28-May-17 12:22 33.675103 -117.871440 39 59ft 0kts
28-May-17 12:23 33.675103 -117.871440 39 59ft 0kts
28-May-17 12:24 33.675193 -117.871193 85 59ft 6kts
28-May-17 12:25 33.677000 -117.869504 26 59ft 18kts
28-May-17 12:26 33.680446 -117.867506 25 59ft 13kts
28-May-17 12:27 33.681961 -117.866138 95 59ft 0kts
28-May-17 12:28 33.681277 -117.865365 198 59ft 16kts
28-May-17 12:29 33.649435 -117.880034 186 1235ft 190kts
28-May-17 12:30 33.591099 -117.891249 186 3797ft 233kts
28-May-17 12:31 33.536731 -117.898928 186 5078ft 177kts
28-May-17 12:32 33.498177 -117.904605 181 5071ft 111kts
28-May-17 12:33 33.498738 -117.890844 58 4548ft 88kts
28-May-17 12:34 33.506312 -117.858776 73 4097ft 124kts
28-May-17 12:35 33.514851 -117.812045 72 5466ft 161kts
28-May-17 12:36 33.538403 -117.753422 51 6669ft 226kts
28-May-17 12:37 33.579037 -117.691206 52 7582ft 264kts
28-May-17 12:38 33.628652 -117.614998 52 7675ft 303kts
28-May-17 12:39 33.680705 -117.534818 52 8085ft 306kts
28-May-17 12:40 33.716226 -117.441915 75 7819ft 311kts
28-May-17 12:41 33.730859 -117.366082 81 7514ft 215kts
28-May-17 12:42 33.743069 -117.278865 82 7511ft 306kts
28-May-17 12:43 33.752805 -117.184102 89 7669ft 258kts
28-May-17 12:44 33.760596 -117.107833 83 10231ft 218kts
28-May-17 12:45 33.798364 -117.046814 46 10188ft 265kts
28-May-17 12:46 33.851338 -116.983061 46 10182ft 272kts
28-May-17 12:47 33.891690 -116.910963 70 10330ft 265kts
28-May-17 12:48 33.908467 -116.828365 84 10188ft 252kts
28-May-17 12:49 33.910677 -116.746150 98 9735ft 248kts
28-May-17 12:50 33.891748 -116.664968 109 8726ft 259kts
28-May-17 12:51 33.890803 -116.579507 73 7193ft 258kts
28-May-17 12:52 33.912175 -116.500313 80 4824ft 254kts
28-May-17 12:53 33.903560 -116.424136 119 3535ft 221kts
28-May-17 12:54 33.867536 -116.376442 138 2899ft 146kts
28-May-17 12:55 33.833995 -116.373534 217 2174ft 134kts
28-May-17 12:56 33.808678 -116.407238 232 1652ft 134kts
28-May-17 12:57 33.815244 -116.446611 292 1144ft 123kts
28-May-17 12:58 33.814892 -116.481767 248 1062ft 107kts
28-May-17 12:59 33.827050 -116.505327 322 417ft 28kts
28-May-17 13:00 33.827523 -116.507205 178 419ft 6kts
28-May-17 13:01 33.827326 -116.507201 179 419ft 0kts
28-May-17 13:02 33.825261 -116.508192 255 417ft 12kts

Navigation Log

Ident Type
Flight plan parsing failed, navigation log unavailable